createdAt,value
2019-04-11T00:00:38.245Z,97.90
2019-04-11T00:03:07.332Z,97.70
2019-04-11T00:05:37.060Z,97.70
2019-04-11T00:08:06.328Z,97.70
2019-04-11T00:10:37.406Z,97.80
2019-04-11T00:13:17.286Z,97.70
2019-04-11T00:15:38.569Z,97.90
2019-04-11T00:18:08.288Z,97.90
2019-04-11T00:20:38.137Z,98.20
2019-04-11T00:23:08.128Z,98.30
2019-04-11T00:25:37.895Z,98.60
2019-04-11T00:28:07.848Z,99.10
2019-04-11T00:30:37.159Z,98.80
2019-04-11T00:33:07.771Z,98.70
2019-04-11T00:35:37.156Z,98.90
2019-04-11T00:38:07.715Z,99.10
2019-04-11T00:40:37.451Z,99.50
2019-04-11T00:43:07.344Z,99.70
2019-04-11T00:45:36.500Z,99.70
2019-04-11T00:48:05.834Z,99.70
2019-04-11T00:50:35.038Z,99.90
2019-04-11T00:53:05.498Z,99.90
2019-04-11T00:58:03.644Z,99.90
2019-04-11T01:00:33.347Z,99.80
2019-04-11T01:03:03.822Z,99.90
2019-04-11T01:08:03.213Z,99.90
2019-04-11T01:10:32.341Z,99.90
2019-04-11T01:13:01.398Z,99.90
2019-04-11T01:15:31.390Z,99.90
2019-04-11T01:18:01.475Z,99.90
2019-04-11T01:20:31.400Z,99.90
2019-04-11T01:23:00.647Z,99.90
2019-04-11T01:25:30.689Z,99.90
2019-04-11T01:28:00.558Z,99.90
2019-04-11T01:30:36.942Z,99.90
2019-04-11T01:33:06.652Z,99.90
2019-04-11T01:35:35.877Z,99.90
2019-04-11T01:38:06.152Z,99.90
2019-04-11T01:40:36.023Z,99.90
2019-04-11T01:43:06.009Z,99.90
2019-04-11T01:45:35.833Z,99.90
2019-04-11T01:48:19.583Z,99.90
2019-04-11T01:50:50.245Z,99.90
2019-04-11T01:53:19.715Z,99.90
2019-04-11T01:55:48.749Z,99.90
2019-04-11T01:58:18.367Z,99.90
2019-04-11T02:01:01.826Z,99.90
2019-04-11T02:03:50.006Z,99.90
2019-04-11T02:06:19.888Z,99.90
2019-04-11T02:08:49.511Z,99.90
2019-04-11T02:11:19.216Z,99.90
2019-04-11T02:13:48.636Z,99.90
2019-04-11T02:16:19.014Z,99.90
2019-04-11T02:18:48.488Z,99.90
2019-04-11T02:21:17.915Z,99.90
2019-04-11T02:26:29.367Z,99.90
2019-04-11T02:28:59.333Z,99.90
2019-04-11T02:31:30.562Z,99.90
2019-04-11T02:34:01.978Z,99.90
2019-04-11T02:39:09.834Z,99.90
2019-04-11T02:44:26.570Z,99.90
2019-04-11T02:46:47.495Z,99.90
2019-04-11T02:49:10.358Z,99.90
2019-04-11T02:51:40.767Z,99.90
2019-04-11T02:54:11.572Z,99.90
2019-04-11T02:56:43.540Z,99.90
2019-04-11T02:59:13.502Z,99.90
2019-04-11T03:01:44.020Z,99.90
2019-04-11T03:04:14.836Z,99.90
2019-04-11T03:06:45.755Z,99.90
2019-04-11T03:09:15.872Z,99.90
2019-04-11T03:11:47.279Z,99.90
2019-04-11T03:14:19.037Z,99.90
2019-04-11T03:16:57.443Z,99.90
2019-04-11T03:19:36.145Z,99.90
2019-04-11T03:21:59.357Z,99.90
2019-04-11T03:24:31.118Z,99.90
2019-04-11T03:27:04.688Z,99.90
2019-04-11T03:29:33.808Z,99.90
2019-04-11T03:32:40.106Z,99.90
2019-04-11T03:37:28.790Z,99.90
2019-04-11T03:39:59.352Z,99.90
2019-04-11T03:42:20.495Z,99.90
2019-04-11T03:44:47.061Z,99.90
2019-04-11T03:47:27.810Z,99.90
2019-04-11T03:49:51.033Z,99.90
2019-04-11T03:54:45.531Z,99.90
2019-04-11T03:57:15.620Z,99.90
2019-04-11T03:59:47.876Z,99.90
2019-04-11T04:02:17.506Z,99.90
2019-04-11T04:04:49.188Z,99.90
2019-04-11T04:07:19.159Z,99.90
2019-04-11T04:09:51.062Z,99.90
2019-04-11T04:12:20.996Z,99.90
2019-04-11T04:15:04.566Z,99.90
2019-04-11T04:18:03.546Z,99.90
2019-04-11T04:20:45.969Z,99.90
2019-04-11T04:25:58.592Z,99.90
2019-04-11T04:28:29.427Z,99.90
2019-04-11T04:31:00.252Z,99.90
2019-04-11T04:33:31.383Z,99.90
2019-04-11T04:36:02.420Z,99.90
2019-04-11T04:38:33.823Z,99.90
2019-04-11T04:41:16.367Z,99.90
2019-04-11T04:43:36.425Z,99.90
2019-04-11T04:46:23.761Z,99.90
2019-04-11T04:48:38.019Z,99.90
2019-04-11T04:51:09.783Z,99.90
2019-04-11T04:53:39.035Z,99.90
2019-04-11T04:56:09.038Z,99.90
2019-04-11T04:58:39.817Z,99.90
2019-04-11T05:01:10.018Z,99.90
2019-04-11T05:03:40.463Z,99.90
2019-04-11T05:06:10.567Z,99.90
2019-04-11T05:08:41.147Z,99.90
2019-04-11T05:11:10.507Z,99.90
2019-04-11T05:13:41.234Z,99.90
2019-04-11T05:16:17.194Z,99.90
2019-04-11T05:18:42.024Z,99.90
2019-04-11T05:21:11.555Z,99.90
2019-04-11T05:23:41.907Z,99.90
2019-04-11T05:26:11.142Z,99.90
2019-04-11T05:28:40.476Z,99.90
2019-04-11T05:31:10.162Z,99.90
2019-04-11T05:33:57.182Z,99.90
2019-04-11T05:36:26.207Z,99.90
2019-04-11T05:38:55.514Z,99.90
2019-04-11T05:41:25.114Z,99.90
2019-04-11T05:43:55.778Z,99.90
2019-04-11T05:46:33.485Z,99.90
2019-04-11T05:49:29.056Z,99.90
2019-04-11T05:52:02.127Z,99.90
2019-04-11T05:54:38.685Z,99.90
2019-04-11T05:57:07.134Z,99.90
2019-04-11T05:59:37.086Z,99.90
2019-04-11T06:02:35.322Z,99.90
2019-04-11T06:05:15.799Z,99.90
2019-04-11T06:07:55.592Z,99.90
2019-04-11T06:10:50.467Z,99.90
2019-04-11T06:13:30.385Z,99.90
2019-04-11T06:16:01.365Z,99.90
2019-04-11T06:18:48.228Z,99.90
2019-04-11T06:21:26.169Z,99.90
2019-04-11T06:24:03.615Z,99.90
2019-04-11T06:26:51.143Z,99.90
2019-04-11T06:29:29.513Z,99.90
2019-04-11T06:32:37.272Z,99.90
2019-04-11T06:35:13.513Z,99.90
2019-04-11T06:38:10.650Z,99.90
2019-04-11T06:40:54.405Z,99.90
2019-04-11T06:43:32.053Z,99.90
2019-04-11T06:46:15.140Z,99.90
2019-04-11T06:49:02.507Z,99.90
2019-04-11T06:51:36.327Z,99.90
2019-04-11T06:54:39.856Z,99.90
2019-04-11T06:57:13.995Z,99.90
2019-04-11T06:59:44.962Z,99.90
2019-04-11T07:02:19.432Z,99.90
2019-04-11T07:04:53.861Z,99.90
2019-04-11T07:07:27.274Z,99.90
2019-04-11T07:09:57.963Z,99.90
2019-04-11T07:12:35.169Z,99.90
2019-04-11T07:15:17.100Z,99.90
2019-04-11T07:18:06.249Z,99.90
2019-04-11T07:21:00.652Z,99.90
2019-04-11T07:23:49.006Z,99.90
2019-04-11T07:26:50.108Z,99.90
2019-04-11T07:29:51.712Z,99.90
2019-04-11T07:32:27.700Z,99.90
2019-04-11T07:35:17.254Z,99.90
2019-04-11T07:37:49.179Z,99.90
2019-04-11T07:40:38.948Z,99.90
2019-04-11T07:43:18.535Z,99.90
2019-04-11T07:46:06.851Z,99.90
2019-04-11T07:48:38.656Z,99.70
2019-04-11T07:51:23.341Z,99.50
2019-04-11T07:53:54.638Z,99.20
2019-04-11T07:56:41.939Z,99.10
2019-04-11T07:59:23.588Z,98.40
2019-04-11T08:02:15.978Z,98.80
2019-04-11T08:05:08.750Z,99.10
2019-04-11T08:07:57.406Z,98.40
2019-04-11T08:10:37.201Z,97.60
2019-04-11T08:13:12.278Z,96.20
2019-04-11T08:15:59.312Z,95.60
2019-04-11T08:18:57.226Z,96.00
2019-04-11T08:21:44.113Z,95.80
2019-04-11T08:24:18.707Z,95.90
2019-04-11T08:27:15.829Z,95.90
2019-04-11T08:29:47.583Z,95.70
2019-04-11T08:32:41.879Z,95.90
2019-04-11T08:35:24.049Z,94.90
2019-04-11T08:38:18.559Z,94.00
2019-04-11T08:41:07.330Z,94.60
2019-04-11T08:43:37.421Z,93.60
2019-04-11T08:46:12.940Z,91.90
2019-04-11T08:48:45.626Z,92.40
2019-04-11T08:51:15.055Z,91.70
2019-04-11T08:54:04.906Z,92.20
2019-04-11T08:56:34.863Z,91.30
2019-04-11T08:59:44.116Z,91.70
2019-04-11T09:02:18.533Z,90.70
2019-04-11T09:05:11.997Z,91.70
2019-04-11T09:07:41.627Z,90.80
2019-04-11T09:10:28.825Z,90.60
2019-04-11T09:13:17.410Z,90.10
2019-04-11T09:16:05.481Z,89.60
2019-04-11T09:18:34.750Z,88.90
2019-04-11T09:21:40.982Z,90.40
2019-04-11T09:24:26.770Z,90.80
2019-04-11T09:27:14.284Z,86.20
2019-04-11T09:29:46.734Z,82.70
2019-04-11T09:32:33.953Z,81.80
2019-04-11T09:35:10.042Z,82.10
2019-04-11T09:37:43.062Z,81.10
2019-04-11T09:40:36.152Z,79.60
2019-04-11T09:43:13.728Z,82.60
2019-04-11T09:46:02.060Z,81.40
2019-04-11T09:48:50.384Z,78.50
2019-04-11T09:51:40.099Z,77.50
2019-04-11T09:54:35.136Z,80.00
2019-04-11T09:57:24.743Z,79.10
2019-04-11T10:00:26.711Z,76.80
2019-04-11T10:02:58.686Z,81.20
2019-04-11T10:05:38.385Z,78.90
2019-04-11T10:08:33.665Z,78.00
2019-04-11T10:11:40.170Z,79.80
2019-04-11T10:14:15.524Z,82.20
2019-04-11T10:17:02.380Z,85.70
2019-04-11T10:19:34.402Z,86.40
2019-04-11T10:22:09.096Z,85.40
2019-04-11T10:25:03.522Z,85.40
2019-04-11T10:27:51.143Z,82.60
2019-04-11T10:30:38.146Z,81.90
2019-04-11T10:33:12.969Z,80.40
2019-04-11T10:36:07.539Z,80.20
2019-04-11T10:38:36.472Z,77.50
2019-04-11T10:41:30.689Z,76.70
2019-04-11T10:43:59.720Z,80.90
2019-04-11T10:46:47.431Z,79.20
2019-04-11T10:49:36.544Z,78.40
2019-04-11T10:52:10.415Z,75.40
2019-04-11T10:54:40.805Z,76.30
2019-04-11T10:57:27.913Z,75.80
2019-04-11T10:59:56.846Z,76.40
2019-04-11T11:02:41.853Z,76.50
2019-04-11T11:05:12.822Z,76.20
2019-04-11T11:07:44.613Z,76.00
2019-04-11T11:10:21.642Z,76.60
2019-04-11T11:13:13.930Z,75.80
2019-04-11T11:15:47.548Z,77.20
2019-04-11T11:19:02.037Z,74.70
2019-04-11T11:21:25.946Z,76.00
2019-04-11T11:24:10.743Z,75.40
2019-04-11T11:26:41.197Z,74.60
2019-04-11T11:29:29.375Z,75.40
2019-04-11T11:32:07.137Z,74.90
2019-04-11T11:34:44.432Z,72.90
2019-04-11T11:37:31.385Z,71.60
2019-04-11T11:40:19.040Z,73.10
2019-04-11T11:43:06.581Z,73.40
2019-04-11T11:45:56.590Z,73.10
2019-04-11T11:48:46.369Z,71.30
2019-04-11T11:51:45.813Z,67.40
2019-04-11T11:54:29.460Z,72.40
2019-04-11T11:57:02.381Z,73.30
2019-04-11T11:59:36.950Z,74.70
2019-04-11T12:02:08.977Z,73.10
2019-04-11T12:04:46.486Z,74.70
2019-04-11T12:07:16.983Z,73.40
2019-04-11T12:10:11.275Z,74.80
2019-04-11T12:13:03.278Z,72.50
2019-04-11T12:15:51.131Z,74.00
2019-04-11T12:18:28.687Z,70.40
2019-04-11T12:21:03.607Z,68.10
2019-04-11T12:23:55.473Z,69.40
2019-04-11T12:26:16.811Z,69.10
2019-04-11T12:29:18.567Z,65.90
2019-04-11T12:31:52.322Z,66.20
2019-04-11T12:34:47.186Z,68.20
2019-04-11T12:37:29.860Z,67.50
2019-04-11T12:40:26.785Z,65.90
2019-04-11T12:42:56.204Z,64.30
2019-04-11T12:45:47.115Z,67.00
2019-04-11T12:48:16.179Z,65.60
2019-04-11T12:51:07.254Z,60.20
2019-04-11T12:53:36.515Z,60.40
2019-04-11T12:56:27.700Z,61.90
2019-04-11T12:59:21.645Z,62.60
2019-04-11T13:02:08.796Z,63.30
2019-04-11T13:04:45.033Z,62.10
2019-04-11T13:07:33.083Z,62.90
2019-04-11T13:10:33.429Z,62.00
2019-04-11T13:13:24.523Z,63.50
2019-04-11T13:16:21.500Z,61.70
2019-04-11T13:19:22.360Z,65.90
2019-04-11T13:21:57.460Z,68.50
2019-04-11T13:24:48.206Z,68.60
2019-04-11T13:27:21.211Z,68.70
2019-04-11T13:30:09.250Z,69.50
2019-04-11T13:32:52.605Z,69.90
2019-04-11T13:35:39.828Z,69.60
2019-04-11T13:38:11.255Z,69.20
2019-04-11T13:41:02.184Z,70.40
2019-04-11T13:43:42.154Z,70.20
2019-04-11T13:46:30.264Z,66.30
2019-04-11T13:49:09.904Z,67.20
2019-04-11T13:51:57.137Z,68.70
2019-04-11T13:54:42.696Z,70.40
2019-04-11T13:57:29.561Z,70.10
2019-04-11T14:00:16.682Z,70.40
2019-04-11T14:03:12.123Z,70.50
2019-04-11T14:05:42.461Z,70.80
2019-04-11T14:08:14.381Z,69.80
2019-04-11T14:10:49.524Z,70.00
2019-04-11T14:13:19.271Z,70.60
2019-04-11T14:15:50.856Z,72.00
2019-04-11T14:18:32.423Z,70.20
2019-04-11T14:21:11.742Z,71.40
2019-04-11T14:23:57.490Z,69.50
2019-04-11T14:26:38.355Z,72.80
2019-04-11T14:29:29.551Z,70.80
2019-04-11T14:32:13.635Z,71.00
2019-04-11T14:34:50.720Z,72.70
2019-04-11T14:37:38.062Z,71.40
2019-04-11T14:40:10.651Z,71.00
2019-04-11T14:42:49.611Z,70.40
2019-04-11T14:45:40.838Z,70.40
2019-04-11T14:48:15.993Z,71.50
2019-04-11T14:51:16.877Z,70.50
2019-04-11T14:54:05.162Z,70.10
2019-04-11T14:56:34.956Z,69.90
2019-04-11T14:59:26.002Z,70.90
2019-04-11T15:02:01.330Z,69.00
2019-04-11T15:04:57.119Z,70.80
2019-04-11T15:07:26.108Z,71.40
2019-04-11T15:10:14.705Z,72.00
2019-04-11T15:12:45.743Z,72.70
2019-04-11T15:15:34.049Z,73.70
2019-04-11T15:18:04.314Z,72.20
2019-04-11T15:20:55.223Z,73.90
2019-04-11T15:23:29.491Z,73.30
2019-04-11T15:26:23.403Z,74.50
2019-04-11T15:29:14.499Z,74.30
2019-04-11T15:32:05.330Z,74.10
2019-04-11T15:34:48.124Z,72.90
2019-04-11T15:37:45.479Z,73.90
2019-04-11T15:40:17.313Z,72.50
2019-04-11T15:43:03.771Z,71.80
2019-04-11T15:45:40.387Z,72.40
2019-04-11T15:48:43.963Z,73.20
2019-04-11T15:51:31.804Z,71.00
2019-04-11T15:54:25.910Z,70.00
2019-04-11T15:57:12.707Z,69.50
2019-04-11T16:00:07.659Z,69.50
2019-04-11T16:02:57.397Z,70.50
2019-04-11T16:05:48.593Z,73.20
2019-04-11T16:08:43.919Z,73.00
2019-04-11T16:11:31.055Z,72.80
2019-04-11T16:14:11.471Z,72.90
2019-04-11T16:17:13.709Z,72.20
2019-04-11T16:19:50.232Z,72.40
2019-04-11T16:22:55.012Z,72.10
2019-04-11T16:25:22.511Z,72.90
2019-04-11T16:28:10.714Z,72.90
2019-04-11T16:30:54.567Z,73.30
2019-04-11T16:33:51.683Z,73.00
2019-04-11T16:36:26.987Z,75.30
2019-04-11T16:39:13.225Z,73.50
2019-04-11T16:42:02.769Z,74.20
2019-04-11T16:44:57.018Z,73.00
2019-04-11T16:47:56.274Z,73.60
2019-04-11T16:50:24.760Z,74.90
2019-04-11T16:52:53.825Z,75.70
2019-04-11T16:55:23.016Z,77.00
2019-04-11T16:57:51.997Z,76.70
2019-04-11T17:00:21.266Z,77.10
2019-04-11T17:02:54.699Z,76.90
2019-04-11T17:05:21.347Z,77.50
2019-04-11T17:08:11.711Z,77.70
2019-04-11T17:10:58.698Z,77.80
2019-04-11T17:13:27.968Z,77.80
2019-04-11T17:15:59.804Z,77.90
2019-04-11T17:18:27.746Z,77.80
2019-04-11T17:20:56.860Z,77.50
2019-04-11T17:23:25.924Z,77.20
2019-04-11T17:25:54.959Z,77.90
2019-04-11T17:28:23.836Z,78.00
2019-04-11T17:30:55.705Z,77.50
2019-04-11T17:33:27.806Z,76.90
2019-04-11T17:35:54.846Z,77.40
2019-04-11T17:38:23.883Z,77.50
2019-04-11T17:40:53.035Z,76.60
2019-04-11T17:43:22.006Z,76.90
2019-04-11T17:45:50.999Z,76.50
2019-04-11T17:48:20.044Z,76.70
2019-04-11T17:50:49.212Z,76.40
2019-04-11T17:53:18.199Z,76.90
2019-04-11T17:55:47.249Z,76.30
2019-04-11T17:58:16.182Z,76.50
2019-04-11T18:00:48.970Z,76.30
2019-04-11T18:03:17.930Z,76.90
2019-04-11T18:05:47.596Z,76.00
2019-04-11T18:08:19.767Z,75.00
2019-04-11T18:10:48.734Z,75.50
2019-04-11T18:13:18.340Z,76.40
2019-04-11T18:15:48.077Z,76.00
2019-04-11T18:18:17.488Z,76.40
2019-04-11T18:20:47.168Z,76.30
2019-04-11T18:23:19.631Z,75.60
2019-04-11T18:25:48.855Z,76.40
2019-04-11T18:28:21.650Z,76.40
2019-04-11T18:30:53.773Z,76.70
2019-04-11T18:33:21.853Z,77.80
2019-04-11T18:35:51.780Z,77.50
2019-04-11T18:38:21.488Z,77.60
2019-04-11T18:40:51.313Z,76.10
2019-04-11T18:43:21.195Z,75.60
2019-04-11T18:45:50.891Z,76.90
2019-04-11T18:48:20.719Z,76.80
2019-04-11T18:50:50.781Z,76.50
2019-04-11T18:53:21.389Z,76.50
2019-04-11T18:55:50.795Z,76.60
2019-04-11T18:58:20.498Z,77.40
2019-04-11T19:00:50.211Z,77.20
2019-04-11T19:03:19.614Z,77.50
2019-04-11T19:05:49.115Z,76.40
2019-04-11T19:08:18.647Z,76.90
2019-04-11T19:10:48.231Z,76.90
2019-04-11T19:13:17.734Z,77.30
2019-04-11T19:15:47.143Z,77.70
2019-04-11T19:18:17.512Z,77.50
2019-04-11T19:20:50.115Z,78.30
2019-04-11T19:23:18.419Z,78.20
2019-04-11T19:25:47.923Z,78.70
2019-04-11T19:28:17.487Z,78.00
2019-04-11T19:30:47.242Z,78.10
2019-04-11T19:33:19.094Z,78.70
2019-04-11T19:35:47.927Z,78.30
2019-04-11T19:38:31.310Z,78.40
2019-04-11T19:41:01.033Z,78.90
2019-04-11T19:43:30.685Z,78.70
2019-04-11T19:46:00.251Z,78.80
2019-04-11T19:48:29.784Z,79.10
2019-04-11T19:50:59.532Z,79.70
2019-04-11T19:53:32.804Z,79.40
2019-04-11T19:56:10.046Z,78.90
2019-04-11T19:58:39.378Z,79.40
2019-04-11T20:01:09.160Z,79.50
2019-04-11T20:03:38.628Z,79.50
2019-04-11T20:06:08.177Z,79.70
2019-04-11T20:08:37.782Z,79.90
2019-04-11T20:11:07.386Z,80.00
2019-04-11T20:13:37.090Z,79.90
2019-04-11T20:16:12.505Z,80.50
2019-04-11T20:18:51.086Z,80.40
2019-04-11T20:21:14.401Z,79.80
2019-04-11T20:23:45.767Z,80.70
2019-04-11T20:26:15.489Z,81.00
2019-04-11T20:28:45.115Z,81.30
2019-04-11T20:31:15.023Z,80.90
2019-04-11T20:33:44.628Z,80.90
2019-04-11T20:39:15.009Z,81.50
2019-04-11T20:41:42.299Z,81.80
2019-04-11T20:44:11.236Z,82.10
2019-04-11T20:46:40.395Z,82.40
2019-04-11T20:49:09.281Z,82.40
2019-04-11T20:51:38.668Z,82.70
2019-04-11T20:54:08.014Z,83.40
2019-04-11T20:56:39.919Z,82.80
2019-04-11T20:59:10.299Z,82.80
2019-04-11T21:01:39.213Z,82.70
2019-04-11T21:04:08.368Z,82.80
2019-04-11T21:06:38.471Z,83.90
2019-04-11T21:09:18.932Z,84.50
2019-04-11T21:11:51.824Z,84.50
2019-04-11T21:14:31.250Z,83.50
2019-04-11T21:18:43.777Z,84.00
2019-04-11T21:19:53.839Z,85.10
2019-04-11T21:32:00.873Z,85.00
2019-04-11T21:37:16.474Z,85.20
2019-04-11T21:39:49.851Z,85.80
2019-04-11T21:42:26.207Z,86.20
2019-04-11T21:45:07.009Z,86.50
2019-04-11T21:47:56.693Z,85.90
2019-04-11T21:50:26.866Z,86.20
2019-04-11T22:12:17.893Z,88.10
2019-04-11T22:14:52.671Z,87.70
2019-04-11T22:17:25.498Z,88.10
2019-04-11T22:19:58.587Z,88.70
2019-04-11T22:22:30.768Z,88.30
2019-04-11T22:25:03.162Z,88.40
2019-04-11T22:27:38.424Z,88.40
2019-04-11T22:30:10.082Z,88.60
2019-04-11T22:32:42.966Z,88.90
2019-04-11T22:35:13.187Z,88.30
2019-04-11T22:37:59.883Z,88.60
2019-04-11T22:43:24.105Z,89.40
2019-04-11T22:45:56.733Z,89.50
2019-04-11T22:52:42.338Z,88.90
2019-04-11T22:55:14.996Z,89.50
2019-04-11T22:57:52.050Z,89.10
2019-04-11T23:00:30.131Z,89.00
2019-04-11T23:03:18.042Z,88.90
2019-04-11T23:05:59.009Z,88.70
2019-04-11T23:08:40.933Z,88.50
2019-04-11T23:11:21.266Z,88.80
2019-04-11T23:13:52.905Z,88.90
2019-04-11T23:16:22.873Z,88.80
2019-04-11T23:19:02.787Z,88.50
2019-04-11T23:21:35.727Z,88.10
2019-04-11T23:24:33.350Z,88.20
2019-04-11T23:37:51.800Z,88.70
2019-04-11T23:41:28.081Z,88.30
2019-04-11T23:51:30.701Z,87.70
2019-04-11T23:54:23.216Z,88.10
2019-04-11T23:57:08.325Z,88.40
2019-04-11T23:59:39.821Z,88.00
